sensor_id;sensor_type;location;lat;lon;timestamp;noise_LAeq;noise_LA_min;noise_LA_max;noise_LA01;noise_LA95
69615;Laerm;56821;52.486;4.680;2022-07-12T00:00:07;39.70;36.32;41.71;;
69615;Laerm;56821;52.486;4.680;2022-07-12T00:00:18;38.06;35.34;40.22;;
69615;Laerm;56821;52.486;4.680;2022-07-12T00:00:28;37.87;34.86;40.73;;
69615;Laerm;56821;52.486;4.680;2022-07-12T00:00:38;37.21;34.95;39.84;;
69615;Laerm;56821;52.486;4.680;2022-07-12T00:00:49;37.43;35.02;39.39;;
69615;Laerm;56821;52.486;4.680;2022-07-12T00:00:59;37.66;34.03;39.71;;
69615;Laerm;56821;52.486;4.680;2022-07-12T00:01:09;36.35;34.01;38.70;;
69615;Laerm;56821;52.486;4.680;2022-07-12T00:01:20;38.34;35.21;51.34;;
69615;Laerm;56821;52.486;4.680;2022-07-12T00:01:31;39.21;36.61;42.16;;
69615;Laerm;56821;52.486;4.680;2022-07-12T00:01:41;39.48;37.15;41.54;;
69615;Laerm;56821;52.486;4.680;2022-07-12T00:01:51;38.55;36.07;41.58;;
69615;Laerm;56821;52.486;4.680;2022-07-12T00:02:01;39.97;37.84;42.66;;
69615;Laerm;56821;52.486;4.680;2022-07-12T00:02:11;39.61;35.69;43.12;;
69615;Laerm;56821;52.486;4.680;2022-07-12T00:02:22;37.46;35.68;40.15;;
69615;Laerm;56821;52.486;4.680;2022-07-12T00:02:32;37.50;34.59;39.64;;
69615;Laerm;56821;52.486;4.680;2022-07-12T00:02:43;37.40;35.39;39.64;;
69615;Laerm;56821;52.486;4.680;2022-07-12T00:02:53;36.91;34.95;39.01;;
69615;Laerm;56821;52.486;4.680;2022-07-12T00:03:03;36.16;33.51;38.55;;
69615;Laerm;56821;52.486;4.680;2022-07-12T00:03:13;35.61;33.00;37.90;;
69615;Laerm;56821;52.486;4.680;2022-07-12T00:03:23;35.27;33.10;37.46;;
69615;Laerm;56821;52.486;4.680;2022-07-12T00:03:34;35.87;33.37;38.44;;
69615;Laerm;56821;52.486;4.680;2022-07-12T00:03:44;38.09;36.01;40.33;;
69615;Laerm;56821;52.486;4.680;2022-07-12T00:03:54;37.32;34.90;43.04;;
69615;Laerm;56821;52.486;4.680;2022-07-12T00:04:05;36.51;33.86;38.50;;
69615;Laerm;56821;52.486;4.680;2022-07-12T00:04:15;37.18;33.63;40.81;;
69615;Laerm;56821;52.486;4.680;2022-07-12T00:04:25;38.70;35.94;41.31;;
69615;Laerm;56821;52.486;4.680;2022-07-12T00:04:35;39.73;37.63;41.50;;
69615;Laerm;56821;52.486;4.680;2022-07-12T00:04:45;40.38;37.79;43.10;;
69615;Laerm;56821;52.486;4.680;2022-07-12T00:04:56;39.70;36.94;41.98;;
69615;Laerm;56821;52.486;4.680;2022-07-12T00:05:06;38.76;36.19;41.05;;
69615;Laerm;56821;52.486;4.680;2022-07-12T00:05:16;37.52;34.98;40.88;;
69615;Laerm;56821;52.486;4.680;2022-07-12T00:05:26;36.74;34.11;38.71;;
69615;Laerm;56821;52.486;4.680;2022-07-12T00:05:37;37.72;34.66;40.34;;
69615;Laerm;56821;52.486;4.680;2022-07-12T00:05:47;37.57;34.84;40.53;;
69615;Laerm;56821;52.486;4.680;2022-07-12T00:05:57;36.78;34.00;39.25;;
69615;Laerm;56821;52.486;4.680;2022-07-12T00:06:07;37.76;34.82;41.48;;
69615;Laerm;56821;52.486;4.680;2022-07-12T00:06:17;38.43;36.18;40.75;;
69615;Laerm;56821;52.486;4.680;2022-07-12T00:06:28;39.02;36.94;40.99;;
69615;Laerm;56821;52.486;4.680;2022-07-12T00:06:38;38.37;35.93;42.14;;
69615;Laerm;56821;52.486;4.680;2022-07-12T00:06:48;38.02;35.56;39.80;;
69615;Laerm;56821;52.486;4.680;2022-07-12T00:06:59;38.45;35.83;40.93;;
69615;Laerm;56821;52.486;4.680;2022-07-12T00:07:10;38.75;36.10;41.21;;
69615;Laerm;56821;52.486;4.680;2022-07-12T00:07:20;38.57;35.97;40.84;;
69615;Laerm;56821;52.486;4.680;2022-07-12T00:07:30;39.25;36.34;41.60;;
69615;Laerm;56821;52.486;4.680;2022-07-12T00:07:40;39.84;37.24;42.26;;
69615;Laerm;56821;52.486;4.680;2022-07-12T00:07:50;40.46;38.20;43.69;;
69615;Laerm;56821;52.486;4.680;2022-07-12T00:08:00;40.20;38.14;43.04;;
69615;Laerm;56821;52.486;4.680;2022-07-12T00:08:11;39.05;35.74;41.76;;
69615;Laerm;56821;52.486;4.680;2022-07-12T00:08:21;40.48;37.89;43.34;;
69615;Laerm;56821;52.486;4.680;2022-07-12T00:08:31;39.03;36.43;41.26;;
69615;Laerm;56821;52.486;4.680;2022-07-12T00:08:41;39.02;35.56;43.24;;
69615;Laerm;56821;52.486;4.680;2022-07-12T00:08:52;38.68;35.79;41.50;;
69615;Laerm;56821;52.486;4.680;2022-07-12T00:09:02;38.59;35.42;41.74;;
69615;Laerm;56821;52.486;4.680;2022-07-12T00:09:12;39.13;36.19;41.47;;
69615;Laerm;56821;52.486;4.680;2022-07-12T00:09:23;39.05;36.08;41.89;;
69615;Laerm;56821;52.486;4.680;2022-07-12T00:09:33;39.01;35.39;41.92;;
69615;Laerm;56821;52.486;4.680;2022-07-12T00:09:43;38.66;35.69;41.34;;
69615;Laerm;56821;52.486;4.680;2022-07-12T00:09:53;38.99;36.35;42.34;;
69615;Laerm;56821;52.486;4.680;2022-07-12T00:10:04;39.12;36.02;42.19;;
69615;Laerm;56821;52.486;4.680;2022-07-12T00:10:14;38.80;35.95;42.23;;
69615;Laerm;56821;52.486;4.680;2022-07-12T00:10:24;38.33;35.42;41.24;;
69615;Laerm;56821;52.486;4.680;2022-07-12T00:10:34;38.40;35.25;41.79;;
69615;Laerm;56821;52.486;4.680;2022-07-12T00:10:45;37.73;35.13;40.38;;
69615;Laerm;56821;52.486;4.680;2022-07-12T00:10:55;37.73;34.53;40.64;;
69615;Laerm;56821;52.486;4.680;2022-07-12T00:11:05;37.25;34.88;40.27;;
69615;Laerm;56821;52.486;4.680;2022-07-12T00:11:15;36.63;33.99;39.42;;
69615;Laerm;56821;52.486;4.680;2022-07-12T00:11:25;37.84;35.51;41.25;;
69615;Laerm;56821;52.486;4.680;2022-07-12T00:11:36;39.91;37.03;46.75;;
69615;Laerm;56821;52.486;4.680;2022-07-12T00:11:46;37.68;34.36;40.10;;
69615;Laerm;56821;52.486;4.680;2022-07-12T00:11:57;37.49;35.39;40.32;;
69615;Laerm;56821;52.486;4.680;2022-07-12T00:12:08;38.90;35.83;48.88;;
69615;Laerm;56821;52.486;4.680;2022-07-12T00:12:18;39.72;36.85;41.49;;
69615;Laerm;56821;52.486;4.680;2022-07-12T00:12:28;39.77;37.92;42.11;;
69615;Laerm;56821;52.486;4.680;2022-07-12T00:12:39;39.55;36.80;42.37;;
69615;Laerm;56821;52.486;4.680;2022-07-12T00:12:49;39.42;35.79;42.04;;
69615;Laerm;56821;52.486;4.680;2022-07-12T00:13:00;38.77;35.60;42.58;;
69615;Laerm;56821;52.486;4.680;2022-07-12T00:13:10;39.09;36.28;41.54;;
69615;Laerm;56821;52.486;4.680;2022-07-12T00:13:20;37.90;35.33;40.97;;
69615;Laerm;56821;52.486;4.680;2022-07-12T00:13:31;39.94;37.30;42.79;;
69615;Laerm;56821;52.486;4.680;2022-07-12T00:13:41;39.41;36.10;42.48;;
69615;Laerm;56821;52.486;4.680;2022-07-12T00:13:51;38.58;36.58;41.36;;
69615;Laerm;56821;52.486;4.680;2022-07-12T00:14:02;39.52;37.05;41.85;;
69615;Laerm;56821;52.486;4.680;2022-07-12T00:14:12;39.36;35.87;41.80;;
69615;Laerm;56821;52.486;4.680;2022-07-12T00:14:23;39.11;37.00;40.91;;
69615;Laerm;56821;52.486;4.680;2022-07-12T00:14:34;37.96;35.57;40.09;;
69615;Laerm;56821;52.486;4.680;2022-07-12T00:14:44;38.28;35.15;42.61;;
69615;Laerm;56821;52.486;4.680;2022-07-12T00:14:54;40.80;38.19;44.08;;
69615;Laerm;56821;52.486;4.680;2022-07-12T00:15:05;40.29;37.57;42.63;;
69615;Laerm;56821;52.486;4.680;2022-07-12T00:15:15;42.25;38.53;45.65;;
69615;Laerm;56821;52.486;4.680;2022-07-12T00:15:26;42.49;38.80;45.55;;
69615;Laerm;56821;52.486;4.680;2022-07-12T00:15:36;40.79;37.68;44.96;;
69615;Laerm;56821;52.486;4.680;2022-07-12T00:15:46;38.98;35.82;42.28;;
69615;Laerm;56821;52.486;4.680;2022-07-12T00:15:57;39.30;36.16;43.18;;
69615;Laerm;56821;52.486;4.680;2022-07-12T00:16:07;40.02;35.81;44.08;;
69615;Laerm;56821;52.486;4.680;2022-07-12T00:16:17;40.43;35.97;45.80;;
69615;Laerm;56821;52.486;4.680;2022-07-12T00:16:28;39.44;36.35;42.46;;
69615;Laerm;56821;52.486;4.680;2022-07-12T00:16:38;38.92;35.83;43.25;;
69615;Laerm;56821;52.486;4.680;2022-07-12T00:16:48;40.37;37.10;43.57;;
69615;Laerm;56821;52.486;4.680;2022-07-12T00:16:58;40.15;36.58;43.45;;
69615;Laerm;56821;52.486;4.680;2022-07-12T00:17:09;39.94;37.18;42.31;;
69615;Laerm;56821;52.486;4.680;2022-07-12T00:17:20;39.30;35.93;42.95;;
69615;Laerm;56821;52.486;4.680;2022-07-12T00:17:30;39.78;34.94;50.22;;
69615;Laerm;56821;52.486;4.680;2022-07-12T00:17:40;38.72;35.36;45.09;;
69615;Laerm;56821;52.486;4.680;2022-07-12T00:17:51;38.67;34.70;42.77;;
69615;Laerm;56821;52.486;4.680;2022-07-12T00:18:01;39.02;35.40;41.24;;
69615;Laerm;56821;52.486;4.680;2022-07-12T00:18:11;38.96;36.88;41.51;;
69615;Laerm;56821;52.486;4.680;2022-07-12T00:18:21;40.94;38.12;43.25;;
69615;Laerm;56821;52.486;4.680;2022-07-12T00:18:31;39.07;36.81;42.17;;
69615;Laerm;56821;52.486;4.680;2022-07-12T00:18:42;38.77;36.62;40.50;;
69615;Laerm;56821;52.486;4.680;2022-07-12T00:18:52;37.94;35.22;42.86;;
69615;Laerm;56821;52.486;4.680;2022-07-12T00:19:04;41.42;37.91;45.28;;
69615;Laerm;56821;52.486;4.680;2022-07-12T00:19:14;40.80;36.58;47.51;;
69615;Laerm;56821;52.486;4.680;2022-07-12T00:19:24;40.20;37.35;43.12;;
69615;Laerm;56821;52.486;4.680;2022-07-12T00:19:34;40.01;36.68;43.17;;
69615;Laerm;56821;52.486;4.680;2022-07-12T00:19:44;38.74;35.27;41.80;;
69615;Laerm;56821;52.486;4.680;2022-07-12T00:19:56;37.42;34.25;41.08;;
69615;Laerm;56821;52.486;4.680;2022-07-12T00:20:06;36.90;34.43;39.08;;
69615;Laerm;56821;52.486;4.680;2022-07-12T00:20:17;38.21;34.20;44.65;;
69615;Laerm;56821;52.486;4.680;2022-07-12T00:20:27;37.98;34.31;42.09;;
69615;Laerm;56821;52.486;4.680;2022-07-12T00:20:38;38.11;34.41;43.63;;
69615;Laerm;56821;52.486;4.680;2022-07-12T00:20:49;39.30;36.26;42.32;;
69615;Laerm;56821;52.486;4.680;2022-07-12T00:20:59;40.46;36.37;42.68;;
69615;Laerm;56821;52.486;4.680;2022-07-12T00:21:09;40.16;36.82;43.90;;
69615;Laerm;56821;52.486;4.680;2022-07-12T00:21:20;38.26;35.43;41.85;;
69615;Laerm;56821;52.486;4.680;2022-07-12T00:21:30;37.86;34.81;40.53;;
69615;Laerm;56821;52.486;4.680;2022-07-12T00:21:40;38.87;36.06;41.16;;
69615;Laerm;56821;52.486;4.680;2022-07-12T00:21:50;39.53;36.53;41.34;;
69615;Laerm;56821;52.486;4.680;2022-07-12T00:22:00;38.45;35.76;41.00;;
69615;Laerm;56821;52.486;4.680;2022-07-12T00:22:10;38.40;34.75;42.12;;
69615;Laerm;56821;52.486;4.680;2022-07-12T00:22:21;37.84;35.67;41.89;;
69615;Laerm;56821;52.486;4.680;2022-07-12T00:22:32;37.38;35.01;41.02;;
69615;Laerm;56821;52.486;4.680;2022-07-12T00:22:42;37.44;35.11;41.32;;
69615;Laerm;56821;52.486;4.680;2022-07-12T00:22:53;39.47;36.19;42.67;;
69615;Laerm;56821;52.486;4.680;2022-07-12T00:23:03;40.55;37.17;42.90;;
69615;Laerm;56821;52.486;4.680;2022-07-12T00:23:13;38.37;36.28;41.11;;
69615;Laerm;56821;52.486;4.680;2022-07-12T00:23:24;38.07;35.91;40.63;;
69615;Laerm;56821;52.486;4.680;2022-07-12T00:23:34;37.76;34.53;40.59;;
69615;Laerm;56821;52.486;4.680;2022-07-12T00:23:44;39.29;34.09;43.19;;
69615;Laerm;56821;52.486;4.680;2022-07-12T00:23:54;36.42;34.32;38.76;;
69615;Laerm;56821;52.486;4.680;2022-07-12T00:24:05;37.45;34.97;39.86;;
69615;Laerm;56821;52.486;4.680;2022-07-12T00:24:15;39.85;36.79;42.10;;
69615;Laerm;56821;52.486;4.680;2022-07-12T00:24:25;38.99;36.06;41.89;;
69615;Laerm;56821;52.486;4.680;2022-07-12T00:24:36;39.04;36.71;41.05;;
69615;Laerm;56821;52.486;4.680;2022-07-12T00:24:46;36.24;34.27;38.94;;
69615;Laerm;56821;52.486;4.680;2022-07-12T00:24:56;35.78;33.04;38.15;;
69615;Laerm;56821;52.486;4.680;2022-07-12T00:25:06;35.77;33.83;38.34;;
69615;Laerm;56821;52.486;4.680;2022-07-12T00:25:17;36.99;34.32;39.58;;
69615;Laerm;56821;52.486;4.680;2022-07-12T00:25:27;39.35;35.78;42.23;;
69615;Laerm;56821;52.486;4.680;2022-07-12T00:25:37;40.73;38.66;45.21;;
69615;Laerm;56821;52.486;4.680;2022-07-12T00:25:48;41.86;40.00;43.91;;
69615;Laerm;56821;52.486;4.680;2022-07-12T00:25:58;40.54;36.76;44.91;;
69615;Laerm;56821;52.486;4.680;2022-07-12T00:26:12;41.82;37.99;46.43;;
69615;Laerm;56821;52.486;4.680;2022-07-12T00:26:22;44.15;38.89;48.85;;
69615;Laerm;56821;52.486;4.680;2022-07-12T00:26:32;42.25;36.87;46.13;;
69615;Laerm;56821;52.486;4.680;2022-07-12T00:26:43;43.39;37.40;49.16;;
69615;Laerm;56821;52.486;4.680;2022-07-12T00:26:53;41.01;37.30;47.05;;
69615;Laerm;56821;52.486;4.680;2022-07-12T00:27:03;39.60;36.87;42.07;;
69615;Laerm;56821;52.486;4.680;2022-07-12T00:27:13;39.97;36.99;42.38;;
69615;Laerm;56821;52.486;4.680;2022-07-12T00:27:23;40.29;37.52;42.29;;
69615;Laerm;56821;52.486;4.680;2022-07-12T00:27:34;38.27;35.96;40.32;;
69615;Laerm;56821;52.486;4.680;2022-07-12T00:27:44;38.48;35.86;41.09;;
69615;Laerm;56821;52.486;4.680;2022-07-12T00:27:54;38.66;36.41;41.09;;
69615;Laerm;56821;52.486;4.680;2022-07-12T00:28:06;39.91;37.10;41.72;;
69615;Laerm;56821;52.486;4.680;2022-07-12T00:28:16;38.62;36.16;40.64;;
69615;Laerm;56821;52.486;4.680;2022-07-12T00:28:26;38.49;36.27;40.91;;
69615;Laerm;56821;52.486;4.680;2022-07-12T00:28:36;39.01;35.36;43.05;;
69615;Laerm;56821;52.486;4.680;2022-07-12T00:28:47;37.18;34.90;39.54;;
69615;Laerm;56821;52.486;4.680;2022-07-12T00:28:57;37.76;35.17;41.75;;
69615;Laerm;56821;52.486;4.680;2022-07-12T00:29:07;37.28;34.61;39.92;;
69615;Laerm;56821;52.486;4.680;2022-07-12T00:29:18;38.46;35.32;42.05;;
69615;Laerm;56821;52.486;4.680;2022-07-12T00:29:28;37.89;35.06;41.05;;
69615;Laerm;56821;52.486;4.680;2022-07-12T00:29:38;39.05;35.30;42.21;;
69615;Laerm;56821;52.486;4.680;2022-07-12T00:29:48;37.85;34.36;42.52;;
69615;Laerm;56821;52.486;4.680;2022-07-12T00:29:59;37.47;34.95;40.34;;
69615;Laerm;56821;52.486;4.680;2022-07-12T00:30:09;37.75;34.85;42.17;;
69615;Laerm;56821;52.486;4.680;2022-07-12T00:30:19;38.60;35.93;44.57;;
69615;Laerm;56821;52.486;4.680;2022-07-12T00:30:29;41.64;37.59;47.79;;
69615;Laerm;56821;52.486;4.680;2022-07-12T00:30:40;41.47;38.15;46.22;;
69615;Laerm;56821;52.486;4.680;2022-07-12T00:30:50;41.09;38.44;43.84;;
69615;Laerm;56821;52.486;4.680;2022-07-12T00:31:00;42.27;39.59;44.08;;
69615;Laerm;56821;52.486;4.680;2022-07-12T00:31:10;42.99;40.20;45.48;;
69615;Laerm;56821;52.486;4.680;2022-07-12T00:31:20;41.00;38.81;43.20;;
69615;Laerm;56821;52.486;4.680;2022-07-12T00:31:31;41.12;38.45;43.28;;
69615;Laerm;56821;52.486;4.680;2022-07-12T00:31:41;39.12;35.40;42.25;;
69615;Laerm;56821;52.486;4.680;2022-07-12T00:31:51;37.61;34.36;39.42;;
69615;Laerm;56821;52.486;4.680;2022-07-12T00:32:01;38.02;35.76;39.97;;
69615;Laerm;56821;52.486;4.680;2022-07-12T00:32:11;39.05;36.54;40.90;;
69615;Laerm;56821;52.486;4.680;2022-07-12T00:32:22;37.99;35.59;40.79;;
69615;Laerm;56821;52.486;4.680;2022-07-12T00:32:32;37.82;35.60;40.00;;
69615;Laerm;56821;52.486;4.680;2022-07-12T00:32:42;37.91;34.52;40.91;;
69615;Laerm;56821;52.486;4.680;2022-07-12T00:32:53;37.97;35.41;40.89;;
69615;Laerm;56821;52.486;4.680;2022-07-12T00:33:03;37.41;34.92;40.34;;
69615;Laerm;56821;52.486;4.680;2022-07-12T00:33:13;36.80;34.15;39.56;;
69615;Laerm;56821;52.486;4.680;2022-07-12T00:33:23;37.50;34.73;40.22;;
69615;Laerm;56821;52.486;4.680;2022-07-12T00:33:34;38.18;35.64;40.56;;
69615;Laerm;56821;52.486;4.680;2022-07-12T00:33:44;39.20;36.52;41.46;;
69615;Laerm;56821;52.486;4.680;2022-07-12T00:33:54;38.75;35.83;42.32;;
69615;Laerm;56821;52.486;4.680;2022-07-12T00:34:05;37.33;35.30;39.44;;
69615;Laerm;56821;52.486;4.680;2022-07-12T00:34:15;37.18;34.78;40.55;;
69615;Laerm;56821;52.486;4.680;2022-07-12T00:34:25;36.75;34.82;39.38;;
69615;Laerm;56821;52.486;4.680;2022-07-12T00:34:35;37.20;34.42;39.43;;
69615;Laerm;56821;52.486;4.680;2022-07-12T00:34:45;37.76;35.26;44.93;;
69615;Laerm;56821;52.486;4.680;2022-07-12T00:34:56;37.21;34.08;39.44;;
69615;Laerm;56821;52.486;4.680;2022-07-12T00:35:06;37.06;34.20;40.10;;
69615;Laerm;56821;52.486;4.680;2022-07-12T00:35:16;37.26;34.44;40.12;;
69615;Laerm;56821;52.486;4.680;2022-07-12T00:35:27;37.64;34.28;40.33;;
69615;Laerm;56821;52.486;4.680;2022-07-12T00:35:37;40.97;35.23;60.69;;
69615;Laerm;56821;52.486;4.680;2022-07-12T00:35:47;38.91;35.20;42.32;;
69615;Laerm;56821;52.486;4.680;2022-07-12T00:35:57;40.55;38.21;42.52;;
69615;Laerm;56821;52.486;4.680;2022-07-12T00:36:07;39.42;37.24;43.04;;
69615;Laerm;56821;52.486;4.680;2022-07-12T00:36:18;40.65;38.35;43.11;;
69615;Laerm;56821;52.486;4.680;2022-07-12T00:36:30;39.87;36.34;41.82;;
69615;Laerm;56821;52.486;4.680;2022-07-12T00:36:40;39.45;36.48;42.44;;
69615;Laerm;56821;52.486;4.680;2022-07-12T00:36:50;40.85;38.81;42.83;;
69615;Laerm;56821;52.486;4.680;2022-07-12T00:37:00;39.81;37.80;41.62;;
69615;Laerm;56821;52.486;4.680;2022-07-12T00:37:10;39.43;36.95;41.64;;
69615;Laerm;56821;52.486;4.680;2022-07-12T00:37:21;37.58;35.45;39.77;;
69615;Laerm;56821;52.486;4.680;2022-07-12T00:37:32;36.97;33.42;39.76;;
69615;Laerm;56821;52.486;4.680;2022-07-12T00:37:42;37.07;34.39;43.48;;
69615;Laerm;56821;52.486;4.680;2022-07-12T00:37:52;36.72;33.94;39.30;;
69615;Laerm;56821;52.486;4.680;2022-07-12T00:38:03;37.06;34.50;39.32;;
69615;Laerm;56821;52.486;4.680;2022-07-12T00:38:13;38.08;34.82;41.54;;
69615;Laerm;56821;52.486;4.680;2022-07-12T00:38:23;40.18;37.10;43.13;;
69615;Laerm;56821;52.486;4.680;2022-07-12T00:38:33;38.35;34.85;42.16;;
69615;Laerm;56821;52.486;4.680;2022-07-12T00:38:44;37.16;34.08;39.81;;
69615;Laerm;56821;52.486;4.680;2022-07-12T00:38:54;36.94;34.51;39.02;;
69615;Laerm;56821;52.486;4.680;2022-07-12T00:39:06;39.78;35.45;43.71;;
69615;Laerm;56821;52.486;4.680;2022-07-12T00:39:16;39.18;35.13;42.14;;
69615;Laerm;56821;52.486;4.680;2022-07-12T00:39:27;38.73;35.20;41.37;;
69615;Laerm;56821;52.486;4.680;2022-07-12T00:39:37;40.85;37.78;42.65;;
69615;Laerm;56821;52.486;4.680;2022-07-12T00:39:47;41.19;39.05;43.17;;
69615;Laerm;56821;52.486;4.680;2022-07-12T00:39:57;41.39;39.69;43.59;;
69615;Laerm;56821;52.486;4.680;2022-07-12T00:40:08;40.16;37.72;42.55;;
69615;Laerm;56821;52.486;4.680;2022-07-12T00:40:19;39.41;36.98;43.67;;
69615;Laerm;56821;52.486;4.680;2022-07-12T00:40:29;39.90;36.67;42.06;;
69615;Laerm;56821;52.486;4.680;2022-07-12T00:40:39;39.89;36.71;42.81;;
69615;Laerm;56821;52.486;4.680;2022-07-12T00:40:50;40.59;38.07;44.03;;
69615;Laerm;56821;52.486;4.680;2022-07-12T00:41:00;40.77;38.06;43.82;;
69615;Laerm;56821;52.486;4.680;2022-07-12T00:41:10;42.29;39.28;44.70;;
69615;Laerm;56821;52.486;4.680;2022-07-12T00:41:20;40.26;36.60;43.22;;
69615;Laerm;56821;52.486;4.680;2022-07-12T00:41:30;39.31;37.39;41.41;;
69615;Laerm;56821;52.486;4.680;2022-07-12T00:41:41;39.98;37.84;43.12;;
69615;Laerm;56821;52.486;4.680;2022-07-12T00:41:52;42.53;38.98;45.99;;
69615;Laerm;56821;52.486;4.680;2022-07-12T00:42:02;42.32;38.09;45.17;;
69615;Laerm;56821;52.486;4.680;2022-07-12T00:42:13;39.85;37.33;42.22;;
69615;Laerm;56821;52.486;4.680;2022-07-12T00:42:23;40.98;37.39;43.39;;
69615;Laerm;56821;52.486;4.680;2022-07-12T00:42:34;38.66;36.21;41.24;;
69615;Laerm;56821;52.486;4.680;2022-07-12T00:42:45;38.41;36.21;40.58;;
69615;Laerm;56821;52.486;4.680;2022-07-12T00:42:55;38.43;35.87;41.23;;
69615;Laerm;56821;52.486;4.680;2022-07-12T00:43:05;39.42;36.83;42.07;;
69615;Laerm;56821;52.486;4.680;2022-07-12T00:43:15;38.98;36.13;41.28;;
69615;Laerm;56821;52.486;4.680;2022-07-12T00:43:26;39.41;36.23;41.96;;
69615;Laerm;56821;52.486;4.680;2022-07-12T00:43:36;38.34;35.78;43.18;;
69615;Laerm;56821;52.486;4.680;2022-07-12T00:43:46;38.60;35.04;46.34;;
69615;Laerm;56821;52.486;4.680;2022-07-12T00:43:56;38.91;35.59;41.03;;
69615;Laerm;56821;52.486;4.680;2022-07-12T00:44:07;39.83;36.76;41.76;;
69615;Laerm;56821;52.486;4.680;2022-07-12T00:44:17;38.18;36.09;39.86;;
69615;Laerm;56821;52.486;4.680;2022-07-12T00:44:27;39.21;36.86;41.63;;
69615;Laerm;56821;52.486;4.680;2022-07-12T00:44:40;37.99;35.57;40.78;;
69615;Laerm;56821;52.486;4.680;2022-07-12T00:44:50;39.07;36.74;41.47;;
69615;Laerm;56821;52.486;4.680;2022-07-12T00:45:00;39.57;36.59;42.20;;
69615;Laerm;56821;52.486;4.680;2022-07-12T00:45:10;38.66;35.79;41.17;;
69615;Laerm;56821;52.486;4.680;2022-07-12T00:45:21;38.51;36.06;41.38;;
69615;Laerm;56821;52.486;4.680;2022-07-12T00:45:31;38.18;35.64;42.02;;
69615;Laerm;56821;52.486;4.680;2022-07-12T00:45:41;38.76;34.97;40.99;;
69615;Laerm;56821;52.486;4.680;2022-07-12T00:45:51;40.05;37.49;42.33;;
69615;Laerm;56821;52.486;4.680;2022-07-12T00:46:02;38.13;36.16;39.96;;
69615;Laerm;56821;52.486;4.680;2022-07-12T00:46:13;40.59;37.70;48.43;;
69615;Laerm;56821;52.486;4.680;2022-07-12T00:46:23;40.03;37.89;42.51;;
69615;Laerm;56821;52.486;4.680;2022-07-12T00:46:34;39.63;35.86;42.64;;
69615;Laerm;56821;52.486;4.680;2022-07-12T00:46:44;38.76;35.24;47.98;;
69615;Laerm;56821;52.486;4.680;2022-07-12T00:46:55;37.27;34.86;39.92;;
69615;Laerm;56821;52.486;4.680;2022-07-12T00:47:06;37.96;35.92;40.34;;
69615;Laerm;56821;52.486;4.680;2022-07-12T00:47:21;36.93;34.60;40.21;;
69615;Laerm;56821;52.486;4.680;2022-07-12T00:47:36;38.28;35.11;43.94;;
69615;Laerm;56821;52.486;4.680;2022-07-12T00:47:47;38.17;35.93;40.20;;
69615;Laerm;56821;52.486;4.680;2022-07-12T00:47:59;37.98;35.76;40.64;;
69615;Laerm;56821;52.486;4.680;2022-07-12T00:48:10;39.16;36.75;41.37;;
69615;Laerm;56821;52.486;4.680;2022-07-12T00:48:20;39.83;37.48;41.90;;
69615;Laerm;56821;52.486;4.680;2022-07-12T00:48:34;38.41;35.90;41.29;;
69615;Laerm;56821;52.486;4.680;2022-07-12T00:48:45;40.17;37.37;43.15;;
69615;Laerm;56821;52.486;4.680;2022-07-12T00:48:55;40.70;38.22;43.14;;
69615;Laerm;56821;52.486;4.680;2022-07-12T00:49:05;40.05;37.12;43.52;;
69615;Laerm;56821;52.486;4.680;2022-07-12T00:49:16;38.84;36.48;40.59;;
69615;Laerm;56821;52.486;4.680;2022-07-12T00:49:26;39.74;35.42;43.12;;
69615;Laerm;56821;52.486;4.680;2022-07-12T00:49:37;37.78;34.71;40.53;;
69615;Laerm;56821;52.486;4.680;2022-07-12T00:49:47;38.75;34.47;42.53;;
69615;Laerm;56821;52.486;4.680;2022-07-12T00:49:57;37.55;34.51;40.45;;
69615;Laerm;56821;52.486;4.680;2022-07-12T00:50:09;39.13;35.16;41.90;;
69615;Laerm;56821;52.486;4.680;2022-07-12T00:50:20;38.42;35.40;41.91;;
69615;Laerm;56821;52.486;4.680;2022-07-12T00:50:31;40.59;36.65;43.02;;
69615;Laerm;56821;52.486;4.680;2022-07-12T00:50:41;42.08;38.63;46.42;;
69615;Laerm;56821;52.486;4.680;2022-07-12T00:50:51;40.65;37.44;43.01;;
69615;Laerm;56821;52.486;4.680;2022-07-12T00:51:02;39.81;37.38;41.46;;
69615;Laerm;56821;52.486;4.680;2022-07-12T00:51:12;39.12;36.79;41.51;;
69615;Laerm;56821;52.486;4.680;2022-07-12T00:51:23;41.15;38.22;45.30;;
69615;Laerm;56821;52.486;4.680;2022-07-12T00:51:33;40.51;37.95;43.74;;
69615;Laerm;56821;52.486;4.680;2022-07-12T00:51:43;39.24;35.69;42.86;;
69615;Laerm;56821;52.486;4.680;2022-07-12T00:51:54;39.31;36.95;42.17;;
69615;Laerm;56821;52.486;4.680;2022-07-12T00:52:04;41.17;36.48;44.71;;
69615;Laerm;56821;52.486;4.680;2022-07-12T00:52:14;38.39;35.45;42.25;;
69615;Laerm;56821;52.486;4.680;2022-07-12T00:52:25;37.60;35.32;40.12;;
69615;Laerm;56821;52.486;4.680;2022-07-12T00:52:36;39.05;36.18;41.01;;
69615;Laerm;56821;52.486;4.680;2022-07-12T00:52:47;40.94;38.30;43.67;;
69615;Laerm;56821;52.486;4.680;2022-07-12T00:52:58;40.39;37.02;43.73;;
69615;Laerm;56821;52.486;4.680;2022-07-12T00:53:08;40.28;38.20;42.80;;
69615;Laerm;56821;52.486;4.680;2022-07-12T00:53:19;39.31;35.64;42.92;;
69615;Laerm;56821;52.486;4.680;2022-07-12T00:53:33;39.33;36.60;43.51;;
69615;Laerm;56821;52.486;4.680;2022-07-12T00:53:43;39.46;37.21;41.80;;
69615;Laerm;56821;52.486;4.680;2022-07-12T00:53:54;40.15;37.16;42.73;;
69615;Laerm;56821;52.486;4.680;2022-07-12T00:54:05;39.90;36.72;43.35;;
69615;Laerm;56821;52.486;4.680;2022-07-12T00:54:16;38.14;35.73;40.81;;
69615;Laerm;56821;52.486;4.680;2022-07-12T00:54:26;37.75;35.04;40.38;;
69615;Laerm;56821;52.486;4.680;2022-07-12T00:54:36;36.92;34.35;39.57;;
69615;Laerm;56821;52.486;4.680;2022-07-12T00:54:47;37.56;34.22;39.65;;
69615;Laerm;56821;52.486;4.680;2022-07-12T00:54:57;39.20;36.61;41.65;;
69615;Laerm;56821;52.486;4.680;2022-07-12T00:55:08;37.92;35.47;40.47;;
69615;Laerm;56821;52.486;4.680;2022-07-12T00:55:18;39.17;35.60;42.29;;
69615;Laerm;56821;52.486;4.680;2022-07-12T00:55:29;41.39;37.61;43.34;;
69615;Laerm;56821;52.486;4.680;2022-07-12T00:55:39;38.90;36.85;41.28;;
69615;Laerm;56821;52.486;4.680;2022-07-12T00:55:56;39.26;36.89;42.11;;
69615;Laerm;56821;52.486;4.680;2022-07-12T00:56:07;37.24;34.41;40.19;;
69615;Laerm;56821;52.486;4.680;2022-07-12T00:56:17;37.82;35.06;41.14;;
69615;Laerm;56821;52.486;4.680;2022-07-12T00:56:27;39.83;36.92;42.10;;
69615;Laerm;56821;52.486;4.680;2022-07-12T00:56:37;39.81;36.91;42.37;;
69615;Laerm;56821;52.486;4.680;2022-07-12T00:56:48;41.35;38.82;43.52;;
69615;Laerm;56821;52.486;4.680;2022-07-12T00:56:58;41.18;39.22;43.29;;
69615;Laerm;56821;52.486;4.680;2022-07-12T00:57:09;40.98;36.83;48.62;;
69615;Laerm;56821;52.486;4.680;2022-07-12T00:57:19;38.46;34.99;43.22;;
69615;Laerm;56821;52.486;4.680;2022-07-12T00:57:29;37.65;35.22;40.51;;
69615;Laerm;56821;52.486;4.680;2022-07-12T00:57:41;37.91;35.68;40.13;;
69615;Laerm;56821;52.486;4.680;2022-07-12T00:57:53;37.80;35.63;40.65;;
69615;Laerm;56821;52.486;4.680;2022-07-12T00:58:03;38.60;34.53;43.21;;
69615;Laerm;56821;52.486;4.680;2022-07-12T00:58:13;38.05;35.33;42.69;;
69615;Laerm;56821;52.486;4.680;2022-07-12T00:58:24;37.71;35.13;40.80;;
69615;Laerm;56821;52.486;4.680;2022-07-12T00:58:35;37.87;35.20;40.43;;